sensor_id;sensor_type;location;lat;lon;timestamp;P1;durP1;ratioP1;P2;durP2;ratioP2
84820;SDS011;75463;50.988;11.332;2024-02-26T00:00:24;13.00;;;7.63;;
84820;SDS011;75463;50.988;11.332;2024-02-26T00:02:50;11.20;;;7.05;;
84820;SDS011;75463;50.988;11.332;2024-02-26T00:05:15;11.32;;;7.38;;
84820;SDS011;75463;50.988;11.332;2024-02-26T00:07:40;13.27;;;7.75;;
84820;SDS011;75463;50.988;11.332;2024-02-26T00:10:06;10.82;;;8.82;;
84820;SDS011;75463;50.988;11.332;2024-02-26T00:12:32;12.48;;;7.32;;
84820;SDS011;75463;50.988;11.332;2024-02-26T00:14:57;13.05;;;7.05;;
84820;SDS011;75463;50.988;11.332;2024-02-26T00:17:23;9.18;;;7.10;;
84820;SDS011;75463;50.988;11.332;2024-02-26T00:19:49;8.98;;;6.47;;
84820;SDS011;75463;50.988;11.332;2024-02-26T00:22:14;10.05;;;6.47;;
84820;SDS011;75463;50.988;11.332;2024-02-26T00:24:40;9.57;;;5.88;;
84820;SDS011;75463;50.988;11.332;2024-02-26T00:27:06;11.40;;;6.78;;
84820;SDS011;75463;50.988;11.332;2024-02-26T00:29:31;9.45;;;6.82;;
84820;SDS011;75463;50.988;11.332;2024-02-26T00:31:57;8.95;;;5.75;;
84820;SDS011;75463;50.988;11.332;2024-02-26T00:34:22;9.65;;;6.47;;
84820;SDS011;75463;50.988;11.332;2024-02-26T00:36:48;9.60;;;5.82;;
84820;SDS011;75463;50.988;11.332;2024-02-26T00:39:13;11.63;;;6.18;;
84820;SDS011;75463;50.988;11.332;2024-02-26T00:41:41;8.38;;;6.13;;
84820;SDS011;75463;50.988;11.332;2024-02-26T00:44:07;11.45;;;6.22;;
84820;SDS011;75463;50.988;11.332;2024-02-26T00:46:32;8.45;;;5.93;;
84820;SDS011;75463;50.988;11.332;2024-02-26T00:48:57;10.23;;;6.72;;
84820;SDS011;75463;50.988;11.332;2024-02-26T00:51:23;9.50;;;6.70;;
84820;SDS011;75463;50.988;11.332;2024-02-26T00:53:48;10.07;;;6.65;;
84820;SDS011;75463;50.988;11.332;2024-02-26T00:56:13;9.93;;;6.40;;
84820;SDS011;75463;50.988;11.332;2024-02-26T00:58:39;11.07;;;6.65;;
84820;SDS011;75463;50.988;11.332;2024-02-26T01:01:04;11.32;;;6.88;;
84820;SDS011;75463;50.988;11.332;2024-02-26T01:03:29;12.05;;;6.35;;
84820;SDS011;75463;50.988;11.332;2024-02-26T01:05:55;10.82;;;6.68;;
84820;SDS011;75463;50.988;11.332;2024-02-26T01:08:20;10.13;;;7.03;;
84820;SDS011;75463;50.988;11.332;2024-02-26T01:10:45;9.07;;;6.50;;
84820;SDS011;75463;50.988;11.332;2024-02-26T01:13:11;10.73;;;6.72;;
84820;SDS011;75463;50.988;11.332;2024-02-26T01:15:36;11.07;;;6.78;;
84820;SDS011;75463;50.988;11.332;2024-02-26T01:18:01;10.52;;;6.25;;
84820;SDS011;75463;50.988;11.332;2024-02-26T01:20:27;9.55;;;6.22;;
84820;SDS011;75463;50.988;11.332;2024-02-26T01:22:52;10.32;;;6.20;;
84820;SDS011;75463;50.988;11.332;2024-02-26T01:25:17;8.50;;;5.60;;
84820;SDS011;75463;50.988;11.332;2024-02-26T01:27:43;10.95;;;7.50;;
84820;SDS011;75463;50.988;11.332;2024-02-26T01:30:09;9.68;;;6.03;;
84820;SDS011;75463;50.988;11.332;2024-02-26T01:32:35;7.18;;;5.45;;
84820;SDS011;75463;50.988;11.332;2024-02-26T01:35:01;8.57;;;6.13;;
84820;SDS011;75463;50.988;11.332;2024-02-26T01:37:28;6.38;;;5.10;;
84820;SDS011;75463;50.988;11.332;2024-02-26T01:39:54;10.05;;;5.85;;
84820;SDS011;75463;50.988;11.332;2024-02-26T01:42:20;6.97;;;4.97;;
84820;SDS011;75463;50.988;11.332;2024-02-26T01:44:45;9.35;;;5.13;;
84820;SDS011;75463;50.988;11.332;2024-02-26T01:47:11;8.52;;;5.80;;
84820;SDS011;75463;50.988;11.332;2024-02-26T01:49:38;10.40;;;6.70;;
84820;SDS011;75463;50.988;11.332;2024-02-26T01:52:05;10.98;;;6.28;;
84820;SDS011;75463;50.988;11.332;2024-02-26T01:54:33;10.35;;;6.43;;
84820;SDS011;75463;50.988;11.332;2024-02-26T01:57:01;9.98;;;6.20;;
84820;SDS011;75463;50.988;11.332;2024-02-26T01:59:28;11.13;;;6.47;;
84820;SDS011;75463;50.988;11.332;2024-02-26T02:01:55;9.90;;;6.82;;
84820;SDS011;75463;50.988;11.332;2024-02-26T02:04:23;7.55;;;5.63;;
84820;SDS011;75463;50.988;11.332;2024-02-26T02:06:49;8.90;;;6.15;;
84820;SDS011;75463;50.988;11.332;2024-02-26T02:09:16;11.38;;;6.65;;
84820;SDS011;75463;50.988;11.332;2024-02-26T02:11:41;9.50;;;6.40;;
84820;SDS011;75463;50.988;11.332;2024-02-26T02:14:07;10.10;;;6.10;;
84820;SDS011;75463;50.988;11.332;2024-02-26T02:16:32;8.93;;;6.53;;
84820;SDS011;75463;50.988;11.332;2024-02-26T02:18:58;10.68;;;6.57;;
84820;SDS011;75463;50.988;11.332;2024-02-26T02:21:23;12.57;;;7.70;;
84820;SDS011;75463;50.988;11.332;2024-02-26T02:23:49;10.30;;;6.65;;
84820;SDS011;75463;50.988;11.332;2024-02-26T02:26:14;13.52;;;6.28;;
84820;SDS011;75463;50.988;11.332;2024-02-26T02:28:40;8.65;;;5.82;;
84820;SDS011;75463;50.988;11.332;2024-02-26T02:31:06;6.93;;;5.25;;
84820;SDS011;75463;50.988;11.332;2024-02-26T02:33:32;7.80;;;5.78;;
84820;SDS011;75463;50.988;11.332;2024-02-26T02:35:59;8.02;;;6.00;;
84820;SDS011;75463;50.988;11.332;2024-02-26T02:38:24;9.43;;;6.95;;
84820;SDS011;75463;50.988;11.332;2024-02-26T02:40:51;8.95;;;6.47;;
84820;SDS011;75463;50.988;11.332;2024-02-26T02:43:17;9.32;;;4.70;;
84820;SDS011;75463;50.988;11.332;2024-02-26T02:45:42;7.30;;;4.97;;
84820;SDS011;75463;50.988;11.332;2024-02-26T02:48:07;7.25;;;6.32;;
84820;SDS011;75463;50.988;11.332;2024-02-26T02:50:33;6.93;;;4.60;;
84820;SDS011;75463;50.988;11.332;2024-02-26T02:52:58;7.88;;;5.35;;
84820;SDS011;75463;50.988;11.332;2024-02-26T02:55:23;5.85;;;4.78;;
84820;SDS011;75463;50.988;11.332;2024-02-26T02:57:49;6.73;;;4.57;;
84820;SDS011;75463;50.988;11.332;2024-02-26T03:00:14;8.18;;;5.35;;
84820;SDS011;75463;50.988;11.332;2024-02-26T03:02:39;10.70;;;5.30;;
84820;SDS011;75463;50.988;11.332;2024-02-26T03:05:05;6.22;;;5.00;;
84820;SDS011;75463;50.988;11.332;2024-02-26T03:07:31;8.27;;;5.63;;
84820;SDS011;75463;50.988;11.332;2024-02-26T03:09:56;7.53;;;5.78;;
84820;SDS011;75463;50.988;11.332;2024-02-26T03:12:22;9.35;;;6.30;;
84820;SDS011;75463;50.988;11.332;2024-02-26T03:14:47;6.72;;;5.45;;
84820;SDS011;75463;50.988;11.332;2024-02-26T03:17:13;9.82;;;6.43;;
84820;SDS011;75463;50.988;11.332;2024-02-26T03:19:38;9.75;;;5.90;;
84820;SDS011;75463;50.988;11.332;2024-02-26T03:22:04;10.73;;;7.28;;
84820;SDS011;75463;50.988;11.332;2024-02-26T03:24:29;10.57;;;6.63;;
84820;SDS011;75463;50.988;11.332;2024-02-26T03:26:54;7.57;;;6.22;;
84820;SDS011;75463;50.988;11.332;2024-02-26T03:29:20;11.77;;;6.90;;
84820;SDS011;75463;50.988;11.332;2024-02-26T03:31:45;10.00;;;6.10;;
84820;SDS011;75463;50.988;11.332;2024-02-26T03:34:10;7.40;;;5.60;;
84820;SDS011;75463;50.988;11.332;2024-02-26T03:36:37;10.18;;;6.13;;
84820;SDS011;75463;50.988;11.332;2024-02-26T03:39:03;10.23;;;6.97;;
84820;SDS011;75463;50.988;11.332;2024-02-26T03:41:32;8.00;;;5.75;;
84820;SDS011;75463;50.988;11.332;2024-02-26T03:43:58;10.43;;;5.88;;
84820;SDS011;75463;50.988;11.332;2024-02-26T03:46:23;6.47;;;5.35;;
84820;SDS011;75463;50.988;11.332;2024-02-26T03:48:49;8.02;;;5.70;;
84820;SDS011;75463;50.988;11.332;2024-02-26T03:51:14;9.18;;;5.47;;
84820;SDS011;75463;50.988;11.332;2024-02-26T03:53:39;6.00;;;4.97;;
84820;SDS011;75463;50.988;11.332;2024-02-26T03:56:05;7.47;;;6.65;;
84820;SDS011;75463;50.988;11.332;2024-02-26T03:58:31;8.38;;;5.10;;
84820;SDS011;75463;50.988;11.332;2024-02-26T04:00:56;8.38;;;5.90;;
84820;SDS011;75463;50.988;11.332;2024-02-26T04:03:22;8.27;;;5.57;;
84820;SDS011;75463;50.988;11.332;2024-02-26T04:05:47;9.43;;;5.38;;
84820;SDS011;75463;50.988;11.332;2024-02-26T04:08:13;7.20;;;5.05;;
84820;SDS011;75463;50.988;11.332;2024-02-26T04:10:38;7.68;;;4.88;;
84820;SDS011;75463;50.988;11.332;2024-02-26T04:13:04;8.57;;;6.38;;
84820;SDS011;75463;50.988;11.332;2024-02-26T04:15:30;10.63;;;6.43;;
84820;SDS011;75463;50.988;11.332;2024-02-26T04:17:55;11.02;;;6.35;;
84820;SDS011;75463;50.988;11.332;2024-02-26T04:20:21;8.98;;;6.15;;
84820;SDS011;75463;50.988;11.332;2024-02-26T04:22:46;10.00;;;6.53;;
84820;SDS011;75463;50.988;11.332;2024-02-26T04:25:12;8.70;;;5.25;;
84820;SDS011;75463;50.988;11.332;2024-02-26T04:27:37;8.52;;;5.07;;
84820;SDS011;75463;50.988;11.332;2024-02-26T04:30:03;9.40;;;5.60;;
84820;SDS011;75463;50.988;11.332;2024-02-26T04:32:29;12.25;;;6.40;;
84820;SDS011;75463;50.988;11.332;2024-02-26T04:37:32;7.80;;;5.45;;
84820;SDS011;75463;50.988;11.332;2024-02-26T04:40:00;9.60;;;6.57;;
84820;SDS011;75463;50.988;11.332;2024-02-26T04:42:26;9.10;;;5.65;;
84820;SDS011;75463;50.988;11.332;2024-02-26T04:44:52;9.23;;;5.28;;
84820;SDS011;75463;50.988;11.332;2024-02-26T04:47:18;7.85;;;5.93;;
84820;SDS011;75463;50.988;11.332;2024-02-26T04:49:43;9.65;;;5.90;;
84820;SDS011;75463;50.988;11.332;2024-02-26T04:52:08;9.40;;;7.07;;
84820;SDS011;75463;50.988;11.332;2024-02-26T04:54:33;8.82;;;6.20;;
84820;SDS011;75463;50.988;11.332;2024-02-26T04:56:59;7.30;;;5.78;;
84820;SDS011;75463;50.988;11.332;2024-02-26T04:59:24;9.13;;;5.95;;
84820;SDS011;75463;50.988;11.332;2024-02-26T05:01:49;7.45;;;4.68;;
84820;SDS011;75463;50.988;11.332;2024-02-26T05:04:17;8.02;;;5.53;;
84820;SDS011;75463;50.988;11.332;2024-02-26T05:06:43;6.30;;;4.85;;
84820;SDS011;75463;50.988;11.332;2024-02-26T05:09:08;6.50;;;5.05;;
84820;SDS011;75463;50.988;11.332;2024-02-26T05:11:33;8.00;;;5.28;;
84820;SDS011;75463;50.988;11.332;2024-02-26T05:14:00;9.18;;;5.18;;
84820;SDS011;75463;50.988;11.332;2024-02-26T05:16:25;9.73;;;5.82;;
84820;SDS011;75463;50.988;11.332;2024-02-26T05:18:52;9.07;;;6.07;;
84820;SDS011;75463;50.988;11.332;2024-02-26T05:21:17;9.30;;;5.28;;
84820;SDS011;75463;50.988;11.332;2024-02-26T05:23:43;8.73;;;5.97;;
84820;SDS011;75463;50.988;11.332;2024-02-26T05:26:09;8.10;;;6.53;;
84820;SDS011;75463;50.988;11.332;2024-02-26T05:28:34;9.32;;;6.90;;
84820;SDS011;75463;50.988;11.332;2024-02-26T05:31:00;10.20;;;6.30;;
84820;SDS011;75463;50.988;11.332;2024-02-26T05:33:25;11.32;;;7.05;;
84820;SDS011;75463;50.988;11.332;2024-02-26T05:35:50;8.90;;;5.88;;
84820;SDS011;75463;50.988;11.332;2024-02-26T05:38:16;10.73;;;6.25;;
84820;SDS011;75463;50.988;11.332;2024-02-26T05:40:41;15.43;;;7.18;;
84820;SDS011;75463;50.988;11.332;2024-02-26T05:43:06;10.77;;;6.40;;
84820;SDS011;75463;50.988;11.332;2024-02-26T05:45:32;11.60;;;6.77;;
84820;SDS011;75463;50.988;11.332;2024-02-26T05:47:58;10.85;;;6.93;;
84820;SDS011;75463;50.988;11.332;2024-02-26T05:50:23;11.82;;;7.65;;
84820;SDS011;75463;50.988;11.332;2024-02-26T05:52:48;35.58;;;16.25;;
84820;SDS011;75463;50.988;11.332;2024-02-26T05:55:14;26.25;;;11.65;;
84820;SDS011;75463;50.988;11.332;2024-02-26T05:57:39;15.35;;;10.45;;
84820;SDS011;75463;50.988;11.332;2024-02-26T06:00:04;20.92;;;11.45;;
84820;SDS011;75463;50.988;11.332;2024-02-26T06:02:30;20.17;;;10.88;;
84820;SDS011;75463;50.988;11.332;2024-02-26T06:04:56;33.67;;;16.58;;
84820;SDS011;75463;50.988;11.332;2024-02-26T06:07:22;53.38;;;25.20;;
84820;SDS011;75463;50.988;11.332;2024-02-26T06:09:48;46.60;;;22.45;;
84820;SDS011;75463;50.988;11.332;2024-02-26T06:12:13;34.17;;;19.38;;
84820;SDS011;75463;50.988;11.332;2024-02-26T06:14:38;35.88;;;19.25;;
84820;SDS011;75463;50.988;11.332;2024-02-26T06:17:04;30.75;;;16.95;;
84820;SDS011;75463;50.988;11.332;2024-02-26T06:19:29;28.33;;;16.05;;
84820;SDS011;75463;50.988;11.332;2024-02-26T06:21:54;26.42;;;13.57;;
84820;SDS011;75463;50.988;11.332;2024-02-26T06:24:20;26.60;;;15.57;;
84820;SDS011;75463;50.988;11.332;2024-02-26T06:26:47;25.70;;;14.07;;
84820;SDS011;75463;50.988;11.332;2024-02-26T06:29:13;30.33;;;16.40;;
84820;SDS011;75463;50.988;11.332;2024-02-26T06:31:38;34.33;;;20.27;;
84820;SDS011;75463;50.988;11.332;2024-02-26T06:34:04;33.20;;;18.17;;
84820;SDS011;75463;50.988;11.332;2024-02-26T06:36:29;39.20;;;20.75;;
84820;SDS011;75463;50.988;11.332;2024-02-26T06:38:56;35.00;;;19.80;;
84820;SDS011;75463;50.988;11.332;2024-02-26T06:41:21;37.15;;;18.90;;
84820;SDS011;75463;50.988;11.332;2024-02-26T06:43:52;29.17;;;16.63;;
84820;SDS011;75463;50.988;11.332;2024-02-26T06:46:17;34.72;;;17.48;;
84820;SDS011;75463;50.988;11.332;2024-02-26T06:48:43;30.05;;;16.73;;
84820;SDS011;75463;50.988;11.332;2024-02-26T06:51:08;36.70;;;19.73;;
84820;SDS011;75463;50.988;11.332;2024-02-26T06:53:33;33.05;;;18.13;;
84820;SDS011;75463;50.988;11.332;2024-02-26T06:55:58;33.30;;;17.42;;
84820;SDS011;75463;50.988;11.332;2024-02-26T06:58:24;33.37;;;17.43;;
84820;SDS011;75463;50.988;11.332;2024-02-26T07:00:49;30.42;;;16.60;;
84820;SDS011;75463;50.988;11.332;2024-02-26T07:03:14;31.98;;;16.77;;
84820;SDS011;75463;50.988;11.332;2024-02-26T07:05:40;32.67;;;18.17;;
84820;SDS011;75463;50.988;11.332;2024-02-26T07:08:05;37.75;;;18.80;;
84820;SDS011;75463;50.988;11.332;2024-02-26T07:10:31;32.50;;;16.98;;
84820;SDS011;75463;50.988;11.332;2024-02-26T07:12:56;32.70;;;20.17;;
84820;SDS011;75463;50.988;11.332;2024-02-26T07:15:22;32.03;;;17.20;;
84820;SDS011;75463;50.988;11.332;2024-02-26T07:17:47;34.25;;;17.45;;
84820;SDS011;75463;50.988;11.332;2024-02-26T07:20:14;33.33;;;17.42;;
84820;SDS011;75463;50.988;11.332;2024-02-26T07:22:40;36.33;;;21.58;;
84820;SDS011;75463;50.988;11.332;2024-02-26T07:25:07;33.28;;;18.65;;
84820;SDS011;75463;50.988;11.332;2024-02-26T07:27:38;39.47;;;20.40;;
84820;SDS011;75463;50.988;11.332;2024-02-26T07:30:05;34.33;;;19.52;;
84820;SDS011;75463;50.988;11.332;2024-02-26T07:32:31;33.97;;;19.13;;
84820;SDS011;75463;50.988;11.332;2024-02-26T07:34:56;38.83;;;19.30;;
84820;SDS011;75463;50.988;11.332;2024-02-26T07:37:21;37.28;;;19.73;;
84820;SDS011;75463;50.988;11.332;2024-02-26T07:39:47;34.55;;;17.70;;
84820;SDS011;75463;50.988;11.332;2024-02-26T07:42:12;34.47;;;19.23;;
84820;SDS011;75463;50.988;11.332;2024-02-26T07:44:37;34.70;;;19.30;;
84820;SDS011;75463;50.988;11.332;2024-02-26T07:47:03;34.15;;;18.92;;
84820;SDS011;75463;50.988;11.332;2024-02-26T07:49:29;36.58;;;18.90;;
84820;SDS011;75463;50.988;11.332;2024-02-26T07:51:54;38.40;;;20.75;;
84820;SDS011;75463;50.988;11.332;2024-02-26T07:56:48;35.57;;;18.53;;
84820;SDS011;75463;50.988;11.332;2024-02-26T07:59:13;36.88;;;18.65;;
84820;SDS011;75463;50.988;11.332;2024-02-26T08:01:38;37.10;;;19.70;;
84820;SDS011;75463;50.988;11.332;2024-02-26T08:04:06;30.73;;;17.63;;
84820;SDS011;75463;50.988;11.332;2024-02-26T08:06:31;34.65;;;18.15;;
84820;SDS011;75463;50.988;11.332;2024-02-26T08:08:57;34.20;;;19.40;;
84820;SDS011;75463;50.988;11.332;2024-02-26T08:11:22;36.50;;;19.00;;
84820;SDS011;75463;50.988;11.332;2024-02-26T08:13:47;32.45;;;18.23;;
84820;SDS011;75463;50.988;11.332;2024-02-26T08:16:12;41.53;;;21.23;;
84820;SDS011;75463;50.988;11.332;2024-02-26T08:18:38;44.83;;;22.35;;
84820;SDS011;75463;50.988;11.332;2024-02-26T08:21:03;35.05;;;18.33;;
84820;SDS011;75463;50.988;11.332;2024-02-26T08:23:29;46.17;;;22.42;;
84820;SDS011;75463;50.988;11.332;2024-02-26T08:25:56;44.25;;;23.27;;
84820;SDS011;75463;50.988;11.332;2024-02-26T08:28:21;40.38;;;21.92;;
84820;SDS011;75463;50.988;11.332;2024-02-26T08:30:46;43.78;;;22.48;;
84820;SDS011;75463;50.988;11.332;2024-02-26T08:33:11;41.60;;;22.13;;
84820;SDS011;75463;50.988;11.332;2024-02-26T08:35:38;38.00;;;20.35;;
84820;SDS011;75463;50.988;11.332;2024-02-26T08:38:03;33.35;;;20.70;;
84820;SDS011;75463;50.988;11.332;2024-02-26T08:40:29;39.90;;;20.55;;
84820;SDS011;75463;50.988;11.332;2024-02-26T08:42:54;37.75;;;21.35;;
84820;SDS011;75463;50.988;11.332;2024-02-26T08:45:20;38.20;;;21.60;;
84820;SDS011;75463;50.988;11.332;2024-02-26T08:47:46;40.88;;;19.85;;
84820;SDS011;75463;50.988;11.332;2024-02-26T08:50:11;37.53;;;19.43;;
84820;SDS011;75463;50.988;11.332;2024-02-26T08:52:37;35.85;;;19.65;;
84820;SDS011;75463;50.988;11.332;2024-02-26T08:55:03;36.30;;;19.63;;
84820;SDS011;75463;50.988;11.332;2024-02-26T08:57:28;36.67;;;19.33;;
84820;SDS011;75463;50.988;11.332;2024-02-26T08:59:54;32.03;;;18.58;;
84820;SDS011;75463;50.988;11.332;2024-02-26T09:02:19;31.95;;;17.42;;
84820;SDS011;75463;50.988;11.332;2024-02-26T09:04:45;35.97;;;20.33;;
84820;SDS011;75463;50.988;11.332;2024-02-26T09:07:10;31.00;;;16.10;;
84820;SDS011;75463;50.988;11.332;2024-02-26T09:09:35;36.55;;;18.80;;
84820;SDS011;75463;50.988;11.332;2024-02-26T09:12:01;35.90;;;20.38;;
84820;SDS011;75463;50.988;11.332;2024-02-26T09:14:27;32.45;;;18.92;;
84820;SDS011;75463;50.988;11.332;2024-02-26T09:16:52;33.58;;;18.52;;
84820;SDS011;75463;50.988;11.332;2024-02-26T09:19:18;34.63;;;19.50;;
84820;SDS011;75463;50.988;11.332;2024-02-26T09:21:44;36.42;;;20.38;;
84820;SDS011;75463;50.988;11.332;2024-02-26T09:24:10;34.70;;;19.17;;
84820;SDS011;75463;50.988;11.332;2024-02-26T09:26:36;33.28;;;19.08;;
84820;SDS011;75463;50.988;11.332;2024-02-26T09:29:01;34.17;;;20.63;;
84820;SDS011;75463;50.988;11.332;2024-02-26T09:31:27;36.35;;;19.33;;
84820;SDS011;75463;50.988;11.332;2024-02-26T09:33:52;36.00;;;20.88;;
84820;SDS011;75463;50.988;11.332;2024-02-26T09:36:17;33.97;;;20.00;;
84820;SDS011;75463;50.988;11.332;2024-02-26T09:38:42;32.67;;;19.60;;
84820;SDS011;75463;50.988;11.332;2024-02-26T09:41:10;38.55;;;18.80;;
84820;SDS011;75463;50.988;11.332;2024-02-26T09:43:39;33.40;;;17.90;;
84820;SDS011;75463;50.988;11.332;2024-02-26T09:46:08;32.53;;;18.83;;
84820;SDS011;75463;50.988;11.332;2024-02-26T09:48:34;34.67;;;19.35;;
84820;SDS011;75463;50.988;11.332;2024-02-26T09:51:01;33.90;;;19.45;;
84820;SDS011;75463;50.988;11.332;2024-02-26T09:53:27;34.00;;;22.27;;
84820;SDS011;75463;50.988;11.332;2024-02-26T09:55:56;33.63;;;19.27;;
84820;SDS011;75463;50.988;11.332;2024-02-26T09:58:22;33.25;;;19.40;;
84820;SDS011;75463;50.988;11.332;2024-02-26T10:00:50;30.95;;;19.27;;
84820;SDS011;75463;50.988;11.332;2024-02-26T10:03:18;33.15;;;18.13;;
84820;SDS011;75463;50.988;11.332;2024-02-26T10:05:46;32.50;;;18.38;;
84820;SDS011;75463;50.988;11.332;2024-02-26T10:08:14;31.88;;;18.30;;
84820;SDS011;75463;50.988;11.332;2024-02-26T10:10:40;31.52;;;17.70;;
84820;SDS011;75463;50.988;11.332;2024-02-26T10:13:06;33.17;;;19.55;;
84820;SDS011;75463;50.988;11.332;2024-02-26T10:15:35;29.38;;;17.58;;
84820;SDS011;75463;50.988;11.332;2024-02-26T10:18:03;31.45;;;17.10;;
84820;SDS011;75463;50.988;11.332;2024-02-26T10:20:30;27.98;;;16.17;;
84820;SDS011;75463;50.988;11.332;2024-02-26T10:22:56;29.88;;;17.02;;
84820;SDS011;75463;50.988;11.332;2024-02-26T10:25:22;26.60;;;15.77;;
84820;SDS011;75463;50.988;11.332;2024-02-26T10:27:47;25.73;;;15.40;;
84820;SDS011;75463;50.988;11.332;2024-02-26T10:30:16;26.73;;;17.00;;
84820;SDS011;75463;50.988;11.332;2024-02-26T10:32:50;30.17;;;15.95;;
84820;SDS011;75463;50.988;11.332;2024-02-26T10:37:48;25.50;;;15.63;;
84820;SDS011;75463;50.988;11.332;2024-02-26T10:40:14;27.27;;;16.25;;
84820;SDS011;75463;50.988;11.332;2024-02-26T10:42:40;26.65;;;16.05;;
84820;SDS011;75463;50.988;11.332;2024-02-26T10:45:07;26.00;;;15.80;;
84820;SDS011;75463;50.988;11.332;2024-02-26T10:47:34;25.38;;;15.15;;
84820;SDS011;75463;50.988;11.332;2024-02-26T10:50:01;27.40;;;16.08;;
84820;SDS011;75463;50.988;11.332;2024-02-26T10:52:27;29.45;;;17.27;;
84820;SDS011;75463;50.988;11.332;2024-02-26T10:55:00;27.02;;;17.58;;
84820;SDS011;75463;50.988;11.332;2024-02-26T10:57:31;26.67;;;15.85;;
84820;SDS011;75463;50.988;11.332;2024-02-26T11:00:00;27.75;;;17.13;;
84820;SDS011;75463;50.988;11.332;2024-02-26T11:02:29;27.55;;;17.70;;
84820;SDS011;75463;50.988;11.332;2024-02-26T11:07:23;25.00;;;15.45;;
84820;SDS011;75463;50.988;11.332;2024-02-26T11:09:50;26.40;;;14.98;;
84820;SDS011;75463;50.988;11.332;2024-02-26T11:12:17;26.92;;;16.70;;
84820;SDS011;75463;50.988;11.332;2024-02-26T11:14:46;28.80;;;16.13;;
84820;SDS011;75463;50.988;11.332;2024-02-26T11:17:13;26.92;;;15.70;;
84820;SDS011;75463;50.988;11.332;2024-02-26T11:19:41;23.75;;;14.98;;
84820;SDS011;75463;50.988;11.332;2024-02-26T11:22:09;26.15;;;16.40;;
84820;SDS011;75463;50.988;11.332;2024-02-26T11:24:34;22.70;;;14.98;;
84820;SDS011;75463;50.988;11.332;2024-02-26T11:27:05;24.92;;;14.18;;
84820;SDS011;75463;50.988;11.332;2024-02-26T11:29:37;25.02;;;16.10;;
84820;SDS011;75463;50.988;11.332;2024-02-26T11:32:06;22.35;;;15.35;;
84820;SDS011;75463;50.988;11.332;2024-02-26T11:34:32;25.08;;;14.80;;
84820;SDS011;75463;50.988;11.332;2024-02-26T11:36:57;27.15;;;15.05;;
84820;SDS011;75463;50.988;11.332;2024-02-26T11:39:34;23.02;;;13.73;;
84820;SDS011;75463;50.988;11.332;2024-02-26T11:42:09;19.85;;;13.65;;
84820;SDS011;75463;50.988;11.332;2024-02-26T11:44:38;22.80;;;14.60;;
84820;SDS011;75463;50.988;11.332;2024-02-26T11:47:19;23.73;;;15.05;;
84820;SDS011;75463;50.988;11.332;2024-02-26T11:49:48;21.98;;;14.15;;
84820;SDS011;75463;50.988;11.332;2024-02-26T11:52:14;24.17;;;14.70;;
84820;SDS011;75463;50.988;11.332;2024-02-26T11:57:22;23.35;;;14.70;;
84820;SDS011;75463;50.988;11.332;2024-02-26T11:59:52;24.98;;;16.00;;
84820;SDS011;75463;50.988;11.332;2024-02-26T12:05:05;23.52;;;14.02;;
84820;SDS011;75463;50.988;11.332;2024-02-26T12:07:36;22.10;;;14.02;;
84820;SDS011;75463;50.988;11.332;2024-02-26T12:10:21;26.05;;;15.88;;
84820;SDS011;75463;50.988;11.332;2024-02-26T12:12:54;27.35;;;14.68;;
84820;SDS011;75463;50.988;11.332;2024-02-26T12:15:31;23.67;;;14.25;;
84820;SDS011;75463;50.988;11.332;2024-02-26T12:18:01;27.30;;;14.15;;
84820;SDS011;75463;50.988;11.332;2024-02-26T12:20:27;23.38;;;15.60;;
84820;SDS011;75463;50.988;11.332;2024-02-26T12:22:53;21.80;;;14.50;;
84820;SDS011;75463;50.988;11.332;2024-02-26T12:25:22;23.13;;;14.07;;
84820;SDS011;75463;50.988;11.332;2024-02-26T12:27:49;20.40;;;12.77;;
84820;SDS011;75463;50.988;11.332;2024-02-26T12:30:16;23.70;;;13.45;;
84820;SDS011;75463;50.988;11.332;2024-02-26T12:32:41;20.23;;;13.27;;
84820;SDS011;75463;50.988;11.332;2024-02-26T12:35:07;22.30;;;14.20;;
84820;SDS011;75463;50.988;11.332;2024-02-26T12:37:32;22.67;;;15.63;;
84820;SDS011;75463;50.988;11.332;2024-02-26T12:39:58;21.55;;;12.75;;
84820;SDS011;75463;50.988;11.332;2024-02-26T12:42:23;21.92;;;14.45;;
84820;SDS011;75463;50.988;11.332;2024-02-26T12:44:49;20.55;;;13.43;;
84820;SDS011;75463;50.988;11.332;2024-02-26T12:47:15;22.00;;;14.05;;
84820;SDS011;75463;50.988;11.332;2024-02-26T12:49:42;21.45;;;14.60;;
84820;SDS011;75463;50.988;11.332;2024-02-26T12:52:09;22.10;;;14.05;;
84820;SDS011;75463;50.988;11.332;2024-02-26T12:54:35;22.55;;;14.10;;
84820;SDS011;75463;50.988;11.332;2024-02-26T12:57:04;26.50;;;14.35;;
84820;SDS011;75463;50.988;11.332;2024-02-26T12:59:31;26.88;;;14.45;;
84820;SDS011;75463;50.988;11.332;2024-02-26T13:01:58;21.70;;;13.07;;
84820;SDS011;75463;50.988;11.332;2024-02-26T13:04:24;24.33;;;13.88;;
84820;SDS011;75463;50.988;11.332;2024-02-26T13:06:53;27.15;;;15.25;;
84820;SDS011;75463;50.988;11.332;2024-02-26T13:09:18;24.25;;;15.23;;
84820;SDS011;75463;50.988;11.332;2024-02-26T13:11:44;20.85;;;12.88;;
84820;SDS011;75463;50.988;11.332;2024-02-26T13:14:19;23.98;;;14.27;;
84820;SDS011;75463;50.988;11.332;2024-02-26T13:16:45;21.88;;;13.32;;
84820;SDS011;75463;50.988;11.332;2024-02-26T13:19:19;20.48;;;13.20;;
84820;SDS011;75463;50.988;11.332;2024-02-26T13:21:45;18.48;;;12.32;;
84820;SDS011;75463;50.988;11.332;2024-02-26T13:24:12;22.87;;;13.87;;
84820;SDS011;75463;50.988;11.332;2024-02-26T13:26:38;18.67;;;12.85;;
84820;SDS011;75463;50.988;11.332;2024-02-26T13:29:03;17.85;;;11.80;;
84820;SDS011;75463;50.988;11.332;2024-02-26T13:31:29;22.77;;;12.18;;
84820;SDS011;75463;50.988;11.332;2024-02-26T13:33:54;18.45;;;12.70;;
84820;SDS011;75463;50.988;11.332;2024-02-26T13:36:21;22.95;;;12.73;;
84820;SDS011;75463;50.988;11.332;2024-02-26T13:38:53;18.55;;;12.35;;
84820;SDS011;75463;50.988;11.332;2024-02-26T13:41:19;17.08;;;11.00;;
84820;SDS011;75463;50.988;11.332;2024-02-26T13:43:46;20.08;;;12.18;;
84820;SDS011;75463;50.988;11.332;2024-02-26T13:46:11;18.23;;;11.38;;
84820;SDS011;75463;50.988;11.332;2024-02-26T13:48:39;16.60;;;11.02;;
84820;SDS011;75463;50.988;11.332;2024-02-26T13:51:04;18.98;;;12.15;;
84820;SDS011;75463;50.988;11.332;2024-02-26T13:53:30;18.58;;;11.30;;
84820;SDS011;75463;50.988;11.332;2024-02-26T13:55:55;21.33;;;12.55;;
84820;SDS011;75463;50.988;11.332;2024-02-26T13:58:23;19.23;;;13.10;;
84820;SDS011;75463;50.988;11.332;2024-02-26T14:00:49;17.38;;;12.63;;
84820;SDS011;75463;50.988;11.332;2024-02-26T14:03:14;22.27;;;12.80;;
84820;SDS011;75463;50.988;11.332;2024-02-26T14:05:41;22.42;;;14.95;;
84820;SDS011;75463;50.988;11.332;2024-02-26T14:08:06;22.02;;;13.20;;
84820;SDS011;75463;50.988;11.332;2024-02-26T14:10:32;17.95;;;12.50;;
84820;SDS011;75463;50.988;11.332;2024-02-26T14:12:57;19.95;;;13.40;;
84820;SDS011;75463;50.988;11.332;2024-02-26T14:15:27;24.75;;;12.68;;
84820;SDS011;75463;50.988;11.332;2024-02-26T14:17:56;20.60;;;13.63;;
84820;SDS011;75463;50.988;11.332;2024-02-26T14:20:22;24.88;;;13.88;;
84820;SDS011;75463;50.988;11.332;2024-02-26T14:22:48;21.42;;;12.75;;
84820;SDS011;75463;50.988;11.332;2024-02-26T14:25:15;18.98;;;13.25;;
84820;SDS011;75463;50.988;11.332;2024-02-26T14:27:40;18.40;;;11.50;;